createdAt,value
2018-01-15T00:02:02.752Z,98672.11
2018-01-15T00:04:31.407Z,98667.16
2018-01-15T00:06:59.731Z,98671.95
2018-01-15T00:09:28.193Z,98663.59
2018-01-15T00:11:57.073Z,98658.78
2018-01-15T00:14:26.152Z,98654.85
2018-01-15T00:16:54.515Z,98646.75
2018-01-15T00:19:22.832Z,98651.86
2018-01-15T00:21:51.147Z,98652.38
2018-01-15T00:24:19.499Z,98653.11
2018-01-15T00:26:47.815Z,98656.99
2018-01-15T00:29:16.741Z,98652.56
2018-01-15T00:31:45.635Z,98640.92
2018-01-15T00:34:13.971Z,98645.60
2018-01-15T00:36:42.508Z,98646.07
2018-01-15T00:39:11.254Z,98644.36
2018-01-15T00:41:39.571Z,98640.48
2018-01-15T00:44:07.879Z,98634.81
2018-01-15T00:46:36.253Z,98635.23
2018-01-15T00:49:05.175Z,98633.14
2018-01-15T00:51:34.096Z,98632.33
2018-01-15T00:54:02.444Z,98624.97
2018-01-15T00:56:30.779Z,98631.64
2018-01-15T00:58:59.096Z,98626.48
2018-01-15T01:01:27.435Z,98627.41
2018-01-15T01:03:55.751Z,98620.86
2018-01-15T01:06:24.764Z,98618.70
2018-01-15T01:08:53.671Z,98620.58
2018-01-15T01:11:21.994Z,98624.36
2018-01-15T01:13:50.372Z,98624.19
2018-01-15T01:16:21.763Z,98615.88
2018-01-15T01:18:51.407Z,98612.66
2018-01-15T01:21:19.782Z,98618.23
2018-01-15T01:23:48.148Z,98616.29
2018-01-15T01:26:18.594Z,98614.37
2018-01-15T01:28:46.903Z,98622.31
2018-01-15T01:31:15.919Z,98616.06
2018-01-15T01:33:44.238Z,98615.53
2018-01-15T01:36:12.552Z,98617.01
2018-01-15T01:38:40.923Z,98614.81
2018-01-15T01:41:09.236Z,98618.89
2018-01-15T01:43:37.551Z,98612.95
2018-01-15T01:46:06.164Z,98612.22
2018-01-15T01:48:35.211Z,98616.72
2018-01-15T01:51:04.288Z,98614.81
2018-01-15T01:53:32.647Z,98607.78
2018-01-15T01:56:00.966Z,98607.06
2018-01-15T01:58:29.280Z,98607.91
2018-01-15T02:00:57.647Z,98603.83
2018-01-15T02:03:25.962Z,98606.70
2018-01-15T02:05:54.276Z,98607.51
2018-01-15T02:08:22.615Z,98609.54
2018-01-15T02:10:50.939Z,98601.41
2018-01-15T02:13:20.118Z,98598.69
2018-01-15T02:15:48.420Z,98602.52
2018-01-15T02:18:16.764Z,98602.91
2018-01-15T02:20:46.059Z,98601.09
2018-01-15T02:23:14.770Z,98600.31
2018-01-15T02:25:43.400Z,98593.37
2018-01-15T02:28:12.478Z,98598.53
2018-01-15T02:30:41.144Z,98593.64
2018-01-15T02:33:09.456Z,98593.14
2018-01-15T02:35:37.796Z,98591.34
2018-01-15T02:38:07.512Z,98582.01
2018-01-15T02:40:36.484Z,98592.93
2018-01-15T02:43:04.812Z,98590.28
2018-01-15T02:45:33.129Z,98589.72
2018-01-15T02:48:01.507Z,98584.58
2018-01-15T02:50:29.828Z,98582.87
2018-01-15T02:52:58.146Z,98582.30
2018-01-15T02:55:26.777Z,98575.28
2018-01-15T02:57:55.086Z,98579.08
2018-01-15T03:00:23.600Z,98577.01
2018-01-15T03:02:52.559Z,98579.27
2018-01-15T03:05:21.047Z,98572.20
2018-01-15T03:07:49.512Z,98577.63
2018-01-15T03:10:18.104Z,98573.78
2018-01-15T03:12:46.644Z,98574.97
2018-01-15T03:15:16.457Z,98564.11
2018-01-15T03:17:45.223Z,98566.63
2018-01-15T03:20:15.421Z,98565.91
2018-01-15T03:22:44.184Z,98570.73
2018-01-15T03:25:12.910Z,98564.21
2018-01-15T03:27:42.326Z,98559.91
2018-01-15T03:30:11.279Z,98570.27
2018-01-15T03:32:39.667Z,98573.58
2018-01-15T03:35:07.979Z,98565.00
2018-01-15T03:37:36.875Z,98562.73
2018-01-15T03:40:05.243Z,98555.41
2018-01-15T03:42:33.564Z,98555.60
2018-01-15T03:45:01.940Z,98546.63
2018-01-15T03:47:30.280Z,98551.58
2018-01-15T03:49:58.980Z,98550.43
2018-01-15T03:52:28.099Z,98549.25
2018-01-15T03:54:56.427Z,98551.52
2018-01-15T03:57:24.762Z,98548.43
2018-01-15T03:59:53.128Z,98557.82
2018-01-15T04:02:21.504Z,98559.65
2018-01-15T04:04:50.408Z,98562.41
2018-01-15T04:07:19.471Z,98559.75
2018-01-15T04:09:47.797Z,98555.14
2018-01-15T04:12:16.337Z,98544.55
2018-01-15T04:14:44.763Z,98546.74
2018-01-15T04:17:13.079Z,98535.22
2018-01-15T04:19:42.344Z,98534.55
2018-01-15T04:22:10.664Z,98538.03
2018-01-15T04:24:39.742Z,98531.11
2018-01-15T04:27:08.412Z,98528.50
2018-01-15T04:29:36.726Z,98525.98
2018-01-15T04:32:05.815Z,98526.70
2018-01-15T04:34:34.553Z,98517.83
2018-01-15T04:37:02.887Z,98514.17
2018-01-15T04:39:31.219Z,98511.81
2018-01-15T04:41:59.567Z,98508.64
2018-01-15T04:44:27.883Z,98512.61
2018-01-15T04:46:56.412Z,98507.20
2018-01-15T04:49:25.119Z,98503.12
2018-01-15T04:51:53.465Z,98503.05
2018-01-15T04:54:22.568Z,98507.08
2018-01-15T04:56:51.714Z,98500.90
2018-01-15T04:59:20.036Z,98503.67
2018-01-15T05:01:48.353Z,98506.15
2018-01-15T05:04:16.967Z,98506.14
2018-01-15T05:06:45.281Z,98506.27
2018-01-15T05:09:13.655Z,98502.77
2018-01-15T05:11:42.811Z,98500.52
2018-01-15T05:14:11.453Z,98491.97
2018-01-15T05:16:39.843Z,98488.05
2018-01-15T05:19:08.211Z,98484.20
2018-01-15T05:21:37.296Z,98480.80
2018-01-15T05:24:06.383Z,98482.27
2018-01-15T05:26:35.515Z,98479.67
2018-01-15T05:29:03.835Z,98483.28
2018-01-15T05:31:32.161Z,98481.87
2018-01-15T05:34:00.865Z,98481.38
2018-01-15T05:36:29.188Z,98478.08
2018-01-15T05:38:57.516Z,98480.48
2018-01-15T05:41:26.047Z,98472.67
2018-01-15T05:43:55.165Z,98469.56
2018-01-15T05:46:23.843Z,98470.41
2018-01-15T05:48:52.188Z,98471.58
2018-01-15T05:51:20.527Z,98470.70
2018-01-15T05:53:49.132Z,98465.50
2018-01-15T05:56:17.487Z,98462.09
2018-01-15T05:58:45.815Z,98467.83
2018-01-15T06:01:14.196Z,98476.34
2018-01-15T06:03:42.516Z,98469.80
2018-01-15T06:06:11.023Z,98475.41
2018-01-15T06:08:39.935Z,98473.16
2018-01-15T06:11:08.900Z,98464.66
2018-01-15T06:13:37.219Z,98466.56
2018-01-15T06:16:06.431Z,98457.88
2018-01-15T06:18:34.748Z,98457.54
2018-01-15T06:21:03.064Z,98458.15
2018-01-15T06:23:31.752Z,98456.53
2018-01-15T06:26:00.078Z,98458.70
2018-01-15T06:28:28.864Z,98453.52
2018-01-15T06:30:57.227Z,98453.76
2018-01-15T06:33:26.315Z,98447.69
2018-01-15T06:35:55.620Z,98444.58
2018-01-15T06:38:24.751Z,98446.77
2018-01-15T06:40:53.072Z,98440.80
2018-01-15T06:43:21.395Z,98444.48
2018-01-15T06:45:49.867Z,98438.13
2018-01-15T06:48:18.192Z,98443.47
2018-01-15T06:50:46.512Z,98436.06
2018-01-15T06:53:14.851Z,98434.11
2018-01-15T06:55:43.779Z,98431.19
2018-01-15T06:58:12.176Z,98433.97
2018-01-15T07:00:40.499Z,98438.21
2018-01-15T07:03:08.811Z,98446.48
2018-01-15T07:05:37.420Z,98440.63
2018-01-15T07:08:05.740Z,98443.63
2018-01-15T07:10:34.067Z,98436.98
2018-01-15T07:13:02.452Z,98437.55
2018-01-15T07:15:30.780Z,98434.64
2018-01-15T07:17:59.108Z,98437.31
2018-01-15T07:20:27.471Z,98436.09
2018-01-15T07:22:56.559Z,98439.64
2018-01-15T07:25:25.092Z,98443.73
2018-01-15T07:27:55.211Z,98441.69
2018-01-15T07:30:23.596Z,98442.66
2018-01-15T07:32:51.912Z,98445.31
2018-01-15T07:35:21.232Z,98452.04
2018-01-15T07:37:49.706Z,98450.65
2018-01-15T07:40:18.043Z,98453.30
2018-01-15T07:42:46.415Z,98447.63
2018-01-15T07:45:14.731Z,98442.98
2018-01-15T07:47:43.831Z,98442.55
2018-01-15T07:50:13.617Z,98444.22
2018-01-15T07:52:42.411Z,98439.05
2018-01-15T07:55:10.740Z,98446.12
2018-01-15T07:57:39.067Z,98448.65
2018-01-15T08:00:07.692Z,98436.59
2018-01-15T08:02:36.777Z,98432.67
2018-01-15T08:05:05.885Z,98434.02
2018-01-15T08:07:34.608Z,98429.30
2018-01-15T08:10:02.932Z,98424.05
2018-01-15T08:12:31.259Z,98432.22
2018-01-15T08:14:59.620Z,98428.88
2018-01-15T08:17:27.936Z,98435.95
2018-01-15T08:19:56.257Z,98425.74
2018-01-15T08:22:25.132Z,98424.46
2018-01-15T08:24:53.461Z,98414.91
2018-01-15T08:27:21.811Z,98420.88
2018-01-15T08:29:50.503Z,98415.30
2018-01-15T08:32:18.824Z,98409.30
2018-01-15T08:34:47.156Z,98412.98
2018-01-15T08:37:15.659Z,98416.73
2018-01-15T08:39:43.996Z,98418.36
2018-01-15T08:42:13.075Z,98420.83
2018-01-15T08:44:41.463Z,98422.41
2018-01-15T08:47:09.871Z,98421.31
2018-01-15T08:49:38.195Z,98420.00
2018-01-15T08:52:07.694Z,98417.64
2018-01-15T08:54:36.024Z,98420.47
2018-01-15T08:57:04.364Z,98412.20
2018-01-15T08:59:33.481Z,98393.03
2018-01-15T09:02:02.569Z,98392.09
2018-01-15T09:04:30.907Z,98378.39
2018-01-15T09:06:59.259Z,98376.31
2018-01-15T09:09:27.583Z,98378.98
2018-01-15T09:11:56.527Z,98380.66
2018-01-15T09:14:24.972Z,98371.52
2018-01-15T09:16:53.313Z,98366.97
2018-01-15T09:19:21.936Z,98364.63
2018-01-15T09:21:51.011Z,98363.16
2018-01-15T09:24:19.835Z,98358.62
2018-01-15T09:26:48.223Z,98355.00
2018-01-15T09:29:17.446Z,98363.36
2018-01-15T09:31:45.823Z,98356.32
2018-01-15T09:34:14.180Z,98358.45
2018-01-15T09:36:42.815Z,98361.83
2018-01-15T09:39:11.120Z,98359.89
2018-01-15T09:41:39.444Z,98356.78
2018-01-15T09:44:08.048Z,98353.88
2018-01-15T09:46:36.359Z,98343.74
2018-01-15T09:49:05.347Z,98335.62
2018-01-15T09:51:34.023Z,98332.67
2018-01-15T09:54:02.352Z,98334.78
2018-01-15T09:56:30.651Z,98332.51
2018-01-15T09:58:59.023Z,98326.13
2018-01-15T10:01:27.372Z,98324.53
2018-01-15T10:03:55.676Z,98326.02
2018-01-15T10:06:24.026Z,98310.19
2018-01-15T10:08:52.860Z,98300.20
2018-01-15T10:11:21.167Z,98293.69
2018-01-15T10:13:49.624Z,98296.72
2018-01-15T10:16:17.923Z,98291.59
2018-01-15T10:18:46.228Z,98299.03
2018-01-15T10:21:14.572Z,98294.53
2018-01-15T10:23:42.875Z,98278.90
2018-01-15T10:26:11.208Z,98274.91
2018-01-15T10:28:39.936Z,98273.56
2018-01-15T10:31:09.019Z,98259.84
2018-01-15T10:33:37.484Z,98253.34
2018-01-15T10:36:06.484Z,98251.98
2018-01-15T10:38:34.788Z,98239.75
2018-01-15T10:41:03.098Z,98239.19
2018-01-15T10:43:31.452Z,98240.45
2018-01-15T10:45:59.845Z,98231.88
2018-01-15T10:48:29.051Z,98226.44
2018-01-15T10:50:57.816Z,98221.61
2018-01-15T10:53:26.914Z,98209.55
2018-01-15T10:55:55.267Z,98206.84
2018-01-15T10:58:24.068Z,98205.47
2018-01-15T11:00:52.944Z,98196.95
2018-01-15T11:03:21.296Z,98201.27
2018-01-15T11:05:49.596Z,98189.49
2018-01-15T11:08:18.399Z,98183.80
2018-01-15T11:10:47.391Z,98175.08
2018-01-15T11:13:15.695Z,98169.48
2018-01-15T11:15:44.000Z,98173.42
2018-01-15T11:18:12.594Z,98164.83
2018-01-15T11:20:41.072Z,98159.22
2018-01-15T11:23:09.499Z,98164.84
2018-01-15T11:25:37.807Z,98156.81
2018-01-15T11:28:06.695Z,98150.69
2018-01-15T11:30:35.567Z,98143.30
2018-01-15T11:33:04.164Z,98141.69
2018-01-15T11:35:32.467Z,98142.65
2018-01-15T11:38:01.192Z,98127.50
2018-01-15T11:40:29.615Z,98128.48
2018-01-15T11:42:58.190Z,98126.44
2018-01-15T11:45:26.614Z,98119.22
2018-01-15T11:47:54.999Z,98117.50
2018-01-15T11:50:23.716Z,98104.31
2018-01-15T11:52:52.196Z,98097.61
2018-01-15T11:55:21.267Z,98085.99
2018-01-15T11:57:50.254Z,98083.63
2018-01-15T12:00:18.611Z,98080.09
2018-01-15T12:02:47.636Z,98083.45
2018-01-15T12:05:15.959Z,98076.62
2018-01-15T12:07:44.512Z,98068.95
2018-01-15T12:10:14.065Z,98060.65
2018-01-15T12:12:42.467Z,98057.81
2018-01-15T12:15:10.763Z,98051.52
2018-01-15T12:17:39.080Z,98043.16
2018-01-15T12:20:07.467Z,98039.38
2018-01-15T12:22:35.924Z,98041.06
2018-01-15T12:25:04.692Z,98034.11
2018-01-15T12:27:33.053Z,98022.81
2018-01-15T12:30:01.366Z,98014.29
2018-01-15T12:32:29.683Z,98010.55
2018-01-15T12:34:58.031Z,98001.81
2018-01-15T12:37:26.335Z,97998.55
2018-01-15T12:39:54.636Z,97992.11
2018-01-15T12:42:24.492Z,97988.18
2018-01-15T12:44:54.778Z,97978.71
2018-01-15T12:47:23.109Z,97970.84
2018-01-15T12:49:51.415Z,97957.80
2018-01-15T12:52:20.040Z,97953.82
2018-01-15T12:54:49.121Z,97950.77
2018-01-15T12:57:18.223Z,97946.76
2018-01-15T12:59:47.351Z,97937.81
2018-01-15T13:02:15.651Z,97932.83
2018-01-15T13:04:44.719Z,97927.94
2018-01-15T13:07:30.925Z,97920.55
2018-01-15T13:09:59.227Z,97920.30
2018-01-15T13:12:27.535Z,97901.99
2018-01-15T13:14:56.671Z,97896.42
2018-01-15T13:17:26.123Z,97882.53
2018-01-15T13:19:54.500Z,97880.32
2018-01-15T13:22:22.807Z,97879.80
2018-01-15T13:24:51.147Z,97873.52
2018-01-15T13:27:19.451Z,97870.45
2018-01-15T13:29:47.840Z,97864.37
2018-01-15T13:32:16.716Z,97865.59
2018-01-15T13:34:45.088Z,97857.75
2018-01-15T13:37:14.092Z,97864.16
2018-01-15T13:39:42.447Z,97860.10
2018-01-15T13:42:10.871Z,97851.83
2018-01-15T13:44:39.170Z,97844.48
2018-01-15T13:47:07.970Z,97839.02
2018-01-15T13:49:36.272Z,97839.61
2018-01-15T13:52:04.817Z,97827.06
2018-01-15T13:54:33.152Z,97821.37
2018-01-15T13:57:01.464Z,97813.02
2018-01-15T13:59:29.767Z,97808.73
2018-01-15T14:01:59.407Z,97809.66
2018-01-15T14:04:27.707Z,97794.72
2018-01-15T14:06:56.342Z,97781.53
2018-01-15T14:09:24.699Z,97774.60
2018-01-15T14:11:53.009Z,97771.84
2018-01-15T14:14:21.760Z,97768.83
2018-01-15T14:16:50.788Z,97753.92
2018-01-15T14:19:20.536Z,97750.20
2018-01-15T14:21:48.854Z,97744.23
2018-01-15T14:24:17.228Z,97741.91
2018-01-15T14:26:45.535Z,97735.41
2018-01-15T14:29:13.843Z,97723.22
2018-01-15T14:31:42.201Z,97722.46
2018-01-15T14:34:10.508Z,97719.93
2018-01-15T14:36:38.887Z,97715.42
2018-01-15T14:39:07.247Z,97708.27
2018-01-15T14:41:36.319Z,97702.44
2018-01-15T14:44:04.674Z,97688.86
2018-01-15T14:46:34.218Z,97677.66
2018-01-15T14:49:02.527Z,97680.82
2018-01-15T14:51:30.835Z,97668.08
2018-01-15T14:53:59.456Z,97661.24
2018-01-15T14:56:27.832Z,97656.91
2018-01-15T14:58:56.515Z,97647.67
2018-01-15T15:01:25.107Z,97643.34
2018-01-15T15:03:53.418Z,97637.89
2018-01-15T15:06:21.728Z,97632.06
2018-01-15T15:08:50.083Z,97622.34
2018-01-15T15:11:18.640Z,97612.41
2018-01-15T15:13:47.452Z,97611.93
2018-01-15T15:16:15.988Z,97597.31
2018-01-15T15:18:44.305Z,97591.43
2018-01-15T15:21:12.619Z,97579.52
2018-01-15T15:23:40.967Z,97569.21
2018-01-15T15:26:09.266Z,97561.94
2018-01-15T15:28:37.567Z,97549.59
2018-01-15T15:31:05.919Z,97542.25
2018-01-15T15:33:34.223Z,97542.25
2018-01-15T15:36:02.531Z,97524.92
2018-01-15T15:38:32.151Z,97529.58
2018-01-15T15:41:00.544Z,97522.88
2018-01-15T15:43:28.850Z,97514.87
2018-01-15T15:45:57.766Z,97510.19
2018-01-15T15:48:26.096Z,97512.17
2018-01-15T15:50:54.415Z,97512.05
2018-01-15T15:53:22.763Z,97505.41
2018-01-15T15:55:51.502Z,97496.73
2018-01-15T15:58:20.009Z,97487.45
2018-01-15T16:00:49.113Z,97479.77
2018-01-15T16:03:17.410Z,97485.66
2018-01-15T16:05:45.715Z,97486.58
2018-01-15T16:08:14.094Z,97477.60
2018-01-15T16:10:43.083Z,97479.08
2018-01-15T16:13:11.409Z,97480.34
2018-01-15T16:15:39.797Z,97476.65
2018-01-15T16:18:08.113Z,97470.80
2018-01-15T16:20:36.963Z,97473.67
2018-01-15T16:23:05.315Z,97471.20
2018-01-15T16:25:34.388Z,97473.79
2018-01-15T16:28:02.691Z,97468.87
2018-01-15T16:30:31.420Z,97468.13
2018-01-15T16:32:59.724Z,97465.03
2018-01-15T16:35:28.203Z,97457.28
2018-01-15T16:37:56.887Z,97463.00
2018-01-15T16:40:25.333Z,97458.39
2018-01-15T16:42:53.649Z,97450.95
2018-01-15T16:45:22.251Z,97452.60
2018-01-15T16:47:50.551Z,97450.69
2018-01-15T16:50:24.275Z,97440.41
2018-01-15T16:52:52.579Z,97439.08
2018-01-15T16:55:20.887Z,97418.05
2018-01-15T16:57:49.925Z,97414.21
2018-01-15T17:00:18.382Z,97418.53
2018-01-15T17:02:46.697Z,97411.83
2018-01-15T17:05:15.711Z,97407.56
2018-01-15T17:07:44.016Z,97399.59
2018-01-15T17:10:12.323Z,97393.92
2018-01-15T17:12:42.025Z,97393.78
2018-01-15T17:15:10.395Z,97383.30
2018-01-15T17:17:38.719Z,97377.22
2018-01-15T17:20:07.726Z,97369.02
2018-01-15T17:22:36.039Z,97371.05
2018-01-15T17:25:04.339Z,97368.80
2018-01-15T17:27:32.690Z,97373.95
2018-01-15T17:30:01.009Z,97365.03
2018-01-15T17:32:29.315Z,97344.17
2018-01-15T17:34:58.303Z,97342.50
2018-01-15T17:37:26.675Z,97328.98
2018-01-15T17:39:55.179Z,97332.52
2018-01-15T17:42:23.764Z,97324.57
2018-01-15T17:44:52.727Z,97316.22
2018-01-15T17:47:21.323Z,97305.61
2018-01-15T17:49:49.716Z,97298.47
2018-01-15T17:52:18.040Z,97300.83
2018-01-15T17:54:46.735Z,97295.59
2018-01-15T17:57:15.051Z,97307.05
2018-01-15T17:59:43.350Z,97295.73
2018-01-15T18:02:12.075Z,97295.94
2018-01-15T18:04:40.385Z,97293.34
2018-01-15T18:07:09.353Z,97290.66
2018-01-15T18:09:37.719Z,97292.43
2018-01-15T18:12:06.584Z,97276.70
2018-01-15T18:14:35.179Z,97276.36
2018-01-15T18:17:04.069Z,97264.31
2018-01-15T18:19:32.384Z,97269.70
2018-01-15T18:22:01.339Z,97257.23
2018-01-15T18:24:29.875Z,97247.42
2018-01-15T18:26:58.309Z,97234.40
2018-01-15T18:29:27.671Z,97244.50
2018-01-15T18:31:56.734Z,97237.90
2018-01-15T18:34:25.960Z,97235.53
2018-01-15T18:36:54.263Z,97238.90
2018-01-15T18:39:23.342Z,97223.74
2018-01-15T18:41:52.428Z,97221.93
2018-01-15T18:44:20.739Z,97213.93
2018-01-15T18:46:49.043Z,97221.41
2018-01-15T18:49:18.064Z,97209.17
2018-01-15T18:51:47.019Z,97211.30
2018-01-15T18:54:15.323Z,97210.47
2018-01-15T18:56:43.760Z,97207.36
2018-01-15T18:59:12.528Z,97209.92
2018-01-15T19:01:40.827Z,97199.92
2018-01-15T19:04:10.179Z,97188.64
2018-01-15T19:06:38.484Z,97188.52
2018-01-15T19:09:07.308Z,97184.15
2018-01-15T19:11:35.827Z,97180.16
2018-01-15T19:14:05.237Z,97176.28
2018-01-15T19:16:33.995Z,97169.89
2018-01-15T19:19:02.606Z,97167.93
2018-01-15T19:21:30.917Z,97165.44
2018-01-15T19:23:59.223Z,97158.48
2018-01-15T19:26:28.784Z,97159.59
2018-01-15T19:28:58.067Z,97154.66
2018-01-15T19:31:26.969Z,97149.22
2018-01-15T19:33:56.058Z,97148.08
2018-01-15T19:36:30.367Z,97144.43
2018-01-15T19:38:58.789Z,97140.23
2018-01-15T19:41:29.371Z,97137.41
2018-01-15T19:44:04.549Z,97138.61
2018-01-15T19:46:38.259Z,97130.59
2018-01-15T19:49:12.016Z,97130.88
2018-01-15T19:51:45.711Z,97124.28
2018-01-15T19:54:19.975Z,97123.15
2018-01-15T19:56:53.751Z,97113.57
2018-01-15T19:59:27.564Z,97101.95
2018-01-15T20:02:02.192Z,97094.31
2018-01-15T20:04:36.047Z,97089.56
2018-01-15T20:07:09.935Z,97077.17
2018-01-15T20:09:43.983Z,97073.52
2018-01-15T20:12:12.768Z,97059.98
2018-01-15T20:14:42.099Z,97056.23
2018-01-15T20:17:11.908Z,97044.14
2018-01-15T20:19:42.103Z,97033.98
2018-01-15T20:22:12.453Z,97023.95
2018-01-15T20:24:51.931Z,97020.17
2018-01-15T20:27:21.866Z,97016.91
2018-01-15T20:29:51.754Z,97017.72
2018-01-15T20:32:25.788Z,97008.59
2018-01-15T20:34:55.731Z,97001.52
2018-01-15T20:37:24.955Z,96993.46
2018-01-15T20:39:54.673Z,96986.16
2018-01-15T20:42:24.669Z,96991.16
2018-01-15T20:44:55.387Z,96990.71
2018-01-15T20:47:33.803Z,96987.86
2018-01-15T20:50:03.313Z,96979.45
2018-01-15T20:52:39.006Z,96979.42
2018-01-15T20:55:08.946Z,96978.45
2018-01-15T20:57:42.629Z,96968.48
2018-01-15T21:00:14.113Z,96967.62
2018-01-15T21:02:44.246Z,96973.23
2018-01-15T21:05:14.262Z,96970.26
2018-01-15T21:07:43.279Z,96956.75
2018-01-15T21:10:13.191Z,96957.97
2018-01-15T21:12:41.645Z,96962.85
2018-01-15T21:15:10.023Z,96956.44
2018-01-15T21:17:38.980Z,96955.62
2018-01-15T21:20:08.274Z,96951.09
2018-01-15T21:22:36.630Z,96943.41
2018-01-15T21:25:05.007Z,96942.80
2018-01-15T21:27:34.872Z,96939.27
2018-01-15T21:30:03.583Z,96934.51
2018-01-15T21:32:31.940Z,96930.67
2018-01-15T21:35:00.279Z,96925.56
2018-01-15T21:37:29.637Z,96937.56
2018-01-15T21:39:58.759Z,96926.41
2018-01-15T21:42:27.838Z,96916.67
2018-01-15T21:44:56.599Z,96914.31
2018-01-15T21:47:24.896Z,96922.59
2018-01-15T21:49:53.237Z,96916.79
2018-01-15T21:52:22.939Z,96908.59
2018-01-15T21:54:52.183Z,96903.81
2018-01-15T21:57:20.528Z,96920.83
2018-01-15T21:59:48.931Z,96908.56
2018-01-15T22:02:17.227Z,96913.42
2018-01-15T22:04:45.895Z,96913.41
2018-01-15T22:07:14.265Z,96911.81
2018-01-15T22:09:42.607Z,96903.67
2018-01-15T22:12:11.486Z,96895.33
2018-01-15T22:14:39.872Z,96898.87
2018-01-15T22:17:08.284Z,96898.11
2018-01-15T22:19:36.625Z,96904.80
2018-01-15T22:22:04.968Z,96891.81
2018-01-15T22:24:33.987Z,96887.68
2018-01-15T22:27:02.384Z,96893.15
2018-01-15T22:29:30.727Z,96887.80
2018-01-15T22:31:59.065Z,96894.16
2018-01-15T22:34:28.129Z,96882.09
2018-01-15T22:36:57.240Z,96883.89
2018-01-15T22:39:26.872Z,96882.43
2018-01-15T22:41:55.966Z,96878.03
2018-01-15T22:44:24.855Z,96876.50
2018-01-15T22:46:53.369Z,96892.45
2018-01-15T22:49:22.248Z,96876.50
2018-01-15T22:51:51.475Z,96870.76
2018-01-15T22:54:20.343Z,96875.16
2018-01-15T22:56:49.672Z,96882.74
2018-01-15T22:59:18.445Z,96868.08
2018-01-15T23:01:47.860Z,96856.94
2018-01-15T23:04:16.159Z,96863.08
2018-01-15T23:06:44.520Z,96849.87
2018-01-15T23:09:12.844Z,96848.87
2018-01-15T23:11:41.454Z,96849.78
2018-01-15T23:14:10.047Z,96837.05
2018-01-15T23:16:38.432Z,96842.66
2018-01-15T23:19:06.726Z,96842.09
2018-01-15T23:21:35.068Z,96829.42
2018-01-15T23:24:03.428Z,96836.18
2018-01-15T23:26:32.075Z,96827.44
2018-01-15T23:29:00.437Z,96832.38
2018-01-15T23:31:28.744Z,96829.38
2018-01-15T23:33:57.051Z,96820.80
2018-01-15T23:36:25.634Z,96813.92
2018-01-15T23:38:53.932Z,96815.52
2018-01-15T23:41:22.823Z,96820.84
2018-01-15T23:43:52.412Z,96820.63
2018-01-15T23:46:20.721Z,96816.56
2018-01-15T23:48:49.028Z,96814.16
2018-01-15T23:51:17.391Z,96809.88
2018-01-15T23:53:45.723Z,96801.73
2018-01-15T23:56:14.027Z,96805.25
2018-01-15T23:58:42.942Z,96813.28
